Time;durP1;ratioP1;P1;durP2;ratioP2;P2;SDS_P1;SDS_P2;PMS_P1;PMS_P2;Temp;Humidity;BMP_temperature;BMP_pressure;BME280_temperature;BME280_humidity;BME280_pressure;Samples;Min_cycle;Max_cycle;Signal;HPM_P1;HPM_P2
2022/04/14 00:00:05;;;;;;;;;;;;;;;12.55;65.86;101068.25;4417758;32;20079;-69
2022/04/14 00:02:31;;;;;;;;;;;;;;;12.59;65.51;101073.78;4412750;32;20563;-69
2022/04/14 00:04:56;;;;;;;;;;;;;;;12.48;66.03;101076.09;4412260;32;19971;-69
2022/04/14 00:07:22;;;;;;;;;;;;;;;12.38;66.23;101077.19;4418940;32;19946;-69
2022/04/14 00:09:48;;;;;;;;;;;;;;;12.40;65.44;101080.38;4415802;32;20285;-69
2022/04/14 00:12:13;;;;;;;;;;;;;;;12.20;66.23;101080.47;4418021;32;19953;-69
2022/04/14 00:14:39;;;;;;;;;;;;;;;12.10;66.70;101087.94;4414140;32;19982;-69
2022/04/14 00:17:04;;;;;;;;;;;;;;;12.23;66.10;101092.88;4416427;32;19950;-69
2022/04/14 00:19:30;;;;;;;;;;;;;;;12.16;66.31;101085.41;4415249;32;20043;-68
2022/04/14 00:21:56;;;;;;;;;;;;;;;12.21;66.66;101090.50;4415105;32;20017;-69
2022/04/14 00:24:21;;;;;;;;;;;;;;;12.30;66.49;101084.25;4404853;32;20331;-69
2022/04/14 00:26:47;;;;;;;;;;;;;;;12.33;66.26;101084.16;4417513;32;19949;-69
2022/04/14 00:29:13;;;;;;;;;;;;;;;12.47;65.63;101089.44;4414189;32;20295;-69
2022/04/14 00:31:38;;;;;;;;;;;;;;;12.46;66.09;101089.88;4414060;32;20007;-69
2022/04/14 00:34:04;;;;;;;;;;;;;;;12.14;66.75;101096.34;4412702;32;19961;-69
2022/04/14 00:36:29;;;;;;;;;;;;;;;12.01;67.28;101087.00;4419209;32;19953;-69
2022/04/14 00:38:55;;;;;;;;;;;;;;;11.92;67.64;101086.81;4415189;32;20351;-69
2022/04/14 00:41:20;;;;;;;;;;;;;;;11.87;68.20;101095.78;4412029;32;19998;-69
2022/04/14 00:43:50;;;;;;;;;;;;;;;12.08;67.67;101098.09;4417721;32;19965;-69
2022/04/14 00:46:16;;;;;;;;;;;;;;;11.85;68.30;101107.50;4416773;32;19958;-69
2022/04/14 00:48:42;;;;;;;;;;;;;;;11.87;68.24;101113.50;4420171;32;19991;-69
2022/04/14 00:51:07;;;;;;;;;;;;;;;11.80;68.37;101104.41;4417251;32;19965;-69
2022/04/14 00:53:33;;;;;;;;;;;;;;;11.88;68.26;101114.31;4411756;32;19985;-69
2022/04/14 00:56:00;;;;;;;;;;;;;;;11.74;68.64;101111.81;4417832;32;20369;-69
2022/04/14 00:58:26;;;;;;;;;;;;;;;11.79;68.34;101100.00;4416420;32;19983;-69
2022/04/14 01:00:52;;;;;;;;;;;;;;;11.82;67.71;101111.19;4417659;32;19968;-69
2022/04/14 01:03:18;;;;;;;;;;;;;;;11.76;68.29;101115.75;4418493;32;20322;-69
2022/04/14 01:05:46;;;;;;;;;;;;;;;11.76;68.28;101110.12;4415049;32;19991;-69
2022/04/14 01:08:15;;;;;;;;;;;;;;;11.69;68.63;101117.97;4414059;32;19950;-69
2022/04/14 01:10:42;;;;;;;;;;;;;;;11.60;69.19;101112.88;4416338;32;19999;-69
2022/04/14 01:13:09;;;;;;;;;;;;;;;11.71;68.79;101112.66;4415004;32;19974;-69
2022/04/14 01:15:35;;;;;;;;;;;;;;;11.95;67.76;101105.66;4414131;32;19969;-69
2022/04/14 01:18:02;;;;;;;;;;;;;;;11.67;68.75;101111.97;4416274;32;20050;-69
2022/04/14 01:20:27;;;;;;;;;;;;;;;11.66;68.56;101108.34;4418881;32;20309;-69
2022/04/14 01:22:56;;;;;;;;;;;;;;;11.44;68.76;101115.66;4410339;32;19969;-69
2022/04/14 01:25:22;;;;;;;;;;;;;;;11.51;68.75;101121.13;4412649;32;20301;-69
2022/04/14 01:27:50;;;;;;;;;;;;;;;11.65;68.02;101108.78;4411838;32;20439;-69
2022/04/14 01:30:15;;;;;;;;;;;;;;;11.86;67.79;101116.75;4412579;32;19954;-69
2022/04/14 01:32:41;;;;;;;;;;;;;;;11.65;68.61;101112.41;4418496;32;20001;-69
2022/04/14 01:35:08;;;;;;;;;;;;;;;11.66;68.91;101113.97;4413805;32;19957;-69
2022/04/14 01:37:33;;;;;;;;;;;;;;;11.70;68.82;101105.47;4418351;32;20294;-69
2022/04/14 01:39:59;;;;;;;;;;;;;;;11.88;68.53;101115.06;4413664;32;19981;-69
2022/04/14 01:42:24;;;;;;;;;;;;;;;11.71;68.87;101119.13;4412373;32;19965;-69
2022/04/14 01:44:50;;;;;;;;;;;;;;;11.77;68.57;101113.75;4412872;32;20329;-69
2022/04/14 01:47:15;;;;;;;;;;;;;;;11.57;69.05;101116.56;4414090;32;20024;-69
2022/04/14 01:49:41;;;;;;;;;;;;;;;11.49;69.09;101117.16;4418340;32;20370;-69
2022/04/14 01:52:06;;;;;;;;;;;;;;;11.39;68.54;101115.37;4417027;32;19954;-69
2022/04/14 01:54:32;;;;;;;;;;;;;;;11.47;68.68;101116.81;4415726;32;19961;-69
2022/04/14 01:56:58;;;;;;;;;;;;;;;11.39;69.10;101118.19;4418588;32;19964;-69
2022/04/14 01:59:24;;;;;;;;;;;;;;;11.36;69.16;101119.06;4418254;32;19950;-69
2022/04/14 02:01:49;;;;;;;;;;;;;;;11.44;68.89;101123.31;4418298;32;19980;-69
2022/04/14 02:04:15;;;;;;;;;;;;;;;11.55;68.34;101119.06;4416621;32;19991;-69
2022/04/14 02:06:41;;;;;;;;;;;;;;;11.38;68.68;101125.84;4418091;32;20243;-69
2022/04/14 02:09:07;;;;;;;;;;;;;;;11.39;68.83;101126.66;4415289;32;21069;-69
2022/04/14 02:11:32;;;;;;;;;;;;;;;11.51;68.43;101123.19;4415034;32;19961;-69
2022/04/14 02:13:58;;;;;;;;;;;;;;;11.53;68.35;101123.50;4414151;32;20044;-69
2022/04/14 02:16:24;;;;;;;;;;;;;;;11.47;68.76;101117.59;4415663;32;20072;-69
2022/04/14 02:18:49;;;;;;;;;;;;;;;11.35;69.21;101120.31;4415864;32;19976;-69
2022/04/14 02:21:15;;;;;;;;;;;;;;;11.24;69.70;101119.72;4414778;32;19972;-69
2022/04/14 02:23:41;;;;;;;;;;;;;;;11.26;69.51;101118.06;4413914;32;20012;-69
2022/04/14 02:26:06;;;;;;;;;;;;;;;11.17;69.65;101120.66;4416780;32;20310;-69
2022/04/14 02:28:32;;;;;;;;;;;;;;;11.36;69.22;101121.87;4420311;32;19990;-69
2022/04/14 02:30:58;;;;;;;;;;;;;;;11.05;69.90;101124.13;4422307;32;20743;-69
2022/04/14 02:33:23;;;;;;;;;;;;;;;11.12;69.86;101123.19;4418621;32;20718;-69
2022/04/14 02:35:51;;;;;;;;;;;;;;;11.15;69.68;101125.94;4414107;32;19954;-69
2022/04/14 02:38:16;;;;;;;;;;;;;;;11.16;69.55;101135.16;4415127;32;19984;-69
2022/04/14 02:40:42;;;;;;;;;;;;;;;11.04;69.90;101139.44;4413840;32;19957;-69
2022/04/14 02:43:08;;;;;;;;;;;;;;;11.12;69.66;101140.09;4411288;32;20931;-69
2022/04/14 02:45:33;;;;;;;;;;;;;;;11.08;69.63;101148.59;4417404;32;19953;-69
2022/04/14 02:47:59;;;;;;;;;;;;;;;11.07;69.78;101140.56;4416610;32;20012;-69
2022/04/14 02:50:25;;;;;;;;;;;;;;;11.09;69.64;101138.94;4416299;32;19960;-69
2022/04/14 02:52:50;;;;;;;;;;;;;;;11.16;69.59;101143.62;4416090;32;19991;-69
2022/04/14 02:55:20;;;;;;;;;;;;;;;11.07;69.95;101143.41;4420202;32;20126;-69
2022/04/14 02:57:45;;;;;;;;;;;;;;;11.06;70.11;101151.06;4419555;32;20306;-69
2022/04/14 03:00:11;;;;;;;;;;;;;;;11.11;69.67;101146.97;4411188;32;19971;-69
2022/04/14 03:02:38;;;;;;;;;;;;;;;11.17;69.39;101154.44;4422175;32;20060;-69
2022/04/14 03:05:04;;;;;;;;;;;;;;;11.12;69.75;101152.16;4418201;32;20005;-69
2022/04/14 03:07:29;;;;;;;;;;;;;;;11.14;69.63;101141.22;4423458;32;20008;-69
2022/04/14 03:09:55;;;;;;;;;;;;;;;11.13;69.58;101147.31;4418345;32;20001;-69
2022/04/14 03:12:20;;;;;;;;;;;;;;;11.03;69.47;101151.94;4419642;32;19972;-69
2022/04/14 03:14:46;;;;;;;;;;;;;;;10.74;70.31;101152.91;4416861;32;20292;-69
2022/04/14 03:17:12;;;;;;;;;;;;;;;10.74;70.12;101156.50;4420046;32;19958;-69
2022/04/14 03:19:38;;;;;;;;;;;;;;;10.71;69.92;101154.53;4417513;32;20373;-69
2022/04/14 03:22:04;;;;;;;;;;;;;;;10.78;69.39;101160.06;4417301;32;20281;-69
2022/04/14 03:24:29;;;;;;;;;;;;;;;10.74;69.24;101155.72;4420144;32;20046;-69
2022/04/14 03:26:55;;;;;;;;;;;;;;;10.44;70.05;101153.81;4419430;32;19970;-69
2022/04/14 03:29:21;;;;;;;;;;;;;;;10.39;70.30;101159.94;4422594;32;19973;-69
2022/04/14 03:31:46;;;;;;;;;;;;;;;10.48;70.31;101151.75;4418521;32;20365;-69
2022/04/14 03:34:12;;;;;;;;;;;;;;;10.34;70.68;101143.53;4422844;32;19971;-69
2022/04/14 03:36:38;;;;;;;;;;;;;;;10.63;70.09;101144.63;4420790;32;20328;-69
2022/04/14 03:39:04;;;;;;;;;;;;;;;10.30;71.46;101151.22;4416990;32;20726;-69
2022/04/14 03:41:29;;;;;;;;;;;;;;;10.34;71.28;101154.00;4417728;32;20189;-69
2022/04/14 03:43:55;;;;;;;;;;;;;;;10.26;71.36;101147.69;4415035;32;19997;-69
2022/04/14 03:46:20;;;;;;;;;;;;;;;10.30;71.00;101153.25;4419488;32;19962;-69
2022/04/14 03:48:46;;;;;;;;;;;;;;;10.28;71.39;101148.03;4415382;32;20600;-69
2022/04/14 03:51:14;;;;;;;;;;;;;;;10.23;71.46;101151.34;4417092;32;20416;-69
2022/04/14 03:53:41;;;;;;;;;;;;;;;10.34;70.94;101145.56;4420602;32;19985;-69
2022/04/14 03:56:06;;;;;;;;;;;;;;;10.15;71.59;101144.25;4418355;32;20001;-69
2022/04/14 03:58:32;;;;;;;;;;;;;;;10.31;71.30;101143.59;4419245;32;19958;-69
2022/04/14 04:00:58;;;;;;;;;;;;;;;10.33;70.82;101138.31;4421001;32;20554;-69
2022/04/14 04:03:24;;;;;;;;;;;;;;;10.29;71.21;101141.22;4422694;32;20006;-69
2022/04/14 04:05:50;;;;;;;;;;;;;;;10.81;69.03;101131.03;4418648;32;19983;-69
2022/04/14 04:08:18;;;;;;;;;;;;;;;10.60;69.44;101134.25;4415918;32;19957;-69
2022/04/14 04:10:44;;;;;;;;;;;;;;;10.36;70.30;101148.72;4421615;32;19968;-69
2022/04/14 04:13:10;;;;;;;;;;;;;;;10.41;70.05;101139.81;4423336;32;19953;-69
2022/04/14 04:15:35;;;;;;;;;;;;;;;10.67;69.32;101139.72;4416543;32;20038;-69
2022/04/14 04:18:01;;;;;;;;;;;;;;;10.85;68.13;101136.59;4415255;32;19994;-69
2022/04/14 04:20:27;;;;;;;;;;;;;;;10.64;69.14;101136.97;4417919;32;19968;-69
2022/04/14 04:22:52;;;;;;;;;;;;;;;10.68;68.83;101144.12;4419281;32;20346;-69
2022/04/14 04:25:18;;;;;;;;;;;;;;;10.71;68.66;101150.94;4415684;32;19995;-69
2022/04/14 04:27:44;;;;;;;;;;;;;;;10.82;68.45;101143.88;4420023;32;20343;-69
2022/04/14 04:30:09;;;;;;;;;;;;;;;10.48;69.34;101146.09;4421028;32;20375;-69
2022/04/14 04:32:35;;;;;;;;;;;;;;;10.42;69.25;101145.00;4420777;32;20330;-69
2022/04/14 04:35:01;;;;;;;;;;;;;;;10.67;68.93;101151.00;4417802;32;19980;-69
2022/04/14 04:37:26;;;;;;;;;;;;;;;10.40;69.34;101155.09;4423042;32;20291;-69
2022/04/14 04:39:52;;;;;;;;;;;;;;;10.33;69.94;101158.81;4418540;32;19953;-69
2022/04/14 04:42:17;;;;;;;;;;;;;;;10.18;70.51;101160.28;4416514;32;19969;-69
2022/04/14 04:44:43;;;;;;;;;;;;;;;10.40;70.22;101169.16;4420868;32;19968;-69
2022/04/14 04:47:09;;;;;;;;;;;;;;;10.48;69.91;101167.81;4413759;32;19992;-69
2022/04/14 04:49:35;;;;;;;;;;;;;;;10.44;69.83;101169.91;4414968;32;20350;-69
2022/04/14 04:52:01;;;;;;;;;;;;;;;10.55;69.43;101167.72;4418691;32;19961;-69
2022/04/14 04:54:28;;;;;;;;;;;;;;;10.46;69.25;101170.28;4419904;32;19957;-69
2022/04/14 04:56:53;;;;;;;;;;;;;;;10.50;69.57;101173.81;4417275;32;19949;-69
2022/04/14 04:59:19;;;;;;;;;;;;;;;10.66;69.15;101173.94;4419805;32;20001;-69
2022/04/14 05:01:45;;;;;;;;;;;;;;;10.27;70.79;101173.81;4416786;32;19954;-69
2022/04/14 05:04:11;;;;;;;;;;;;;;;10.39;70.35;101168.38;4415709;32;20002;-69
2022/04/14 05:06:37;;;;;;;;;;;;;;;10.58;69.69;101172.50;4421672;32;20007;-69
2022/04/14 05:09:02;;;;;;;;;;;;;;;10.68;69.23;101166.66;4419455;32;19969;-69
2022/04/14 05:11:28;;;;;;;;;;;;;;;10.68;69.07;101172.28;4421534;32;19969;-69
2022/04/14 05:13:53;;;;;;;;;;;;;;;10.72;68.96;101175.84;4411838;32;20436;-69
2022/04/14 05:16:19;;;;;;;;;;;;;;;10.74;68.71;101172.59;4414517;32;19985;-69
2022/04/14 05:18:45;;;;;;;;;;;;;;;10.68;68.62;101175.09;4416108;32;19950;-69
2022/04/14 05:21:10;;;;;;;;;;;;;;;10.63;68.51;101171.97;4415354;32;19965;-69
2022/04/14 05:23:36;;;;;;;;;;;;;;;10.44;69.14;101172.72;4419996;32;20438;-69
2022/04/14 05:26:01;;;;;;;;;;;;;;;10.57;68.91;101176.50;4416905;32;20241;-69
2022/04/14 05:28:27;;;;;;;;;;;;;;;10.69;68.42;101178.72;4420737;32;19949;-69
2022/04/14 05:30:53;;;;;;;;;;;;;;;10.75;68.63;101182.63;4419274;32;20000;-69
2022/04/14 05:33:18;;;;;;;;;;;;;;;10.88;68.33;101173.13;4412984;32;19997;-69
2022/04/14 05:35:44;;;;;;;;;;;;;;;10.98;68.07;101185.44;4413927;32;19988;-69
2022/04/14 05:38:10;;;;;;;;;;;;;;;11.08;67.44;101188.03;4416768;32;19981;-69
2022/04/14 05:40:41;;;;;;;;;;;;;;;11.28;66.96;101177.59;4413507;32;19958;-69
2022/04/14 05:43:09;;;;;;;;;;;;;;;11.36;66.96;101164.97;4422093;32;19967;-69
2022/04/14 05:45:36;;;;;;;;;;;;;;;11.20;67.92;101176.13;4416093;32;20007;-69
2022/04/14 05:48:02;;;;;;;;;;;;;;;11.24;67.80;101167.62;4413590;32;19961;-69
2022/04/14 05:50:28;;;;;;;;;;;;;;;11.42;67.11;101176.50;4414685;32;20370;-69
2022/04/14 05:52:55;;;;;;;;;;;;;;;11.55;66.53;101181.06;4417314;32;19964;-69
2022/04/14 05:55:20;;;;;;;;;;;;;;;11.64;66.29;101186.13;4416188;32;20180;-70
2022/04/14 05:57:46;;;;;;;;;;;;;;;11.68;66.15;101192.50;4426521;32;20353;-69
2022/04/14 06:00:13;;;;;;;;;;;;;;;11.87;65.80;101191.66;4412465;32;19961;-69
2022/04/14 06:02:39;;;;;;;;;;;;;;;12.07;64.86;101206.53;4413897;32;19983;-69
2022/04/14 06:05:05;;;;;;;;;;;;;;;12.13;63.62;101202.75;4418024;32;20310;-69
2022/04/14 06:07:30;;;;;;;;;;;;;;;12.09;64.44;101206.91;4418494;32;19941;-69
2022/04/14 06:09:55;;;;;;;;;;;;;;;12.26;63.97;101204.88;4414975;32;20039;-69
2022/04/14 06:12:21;;;;;;;;;;;;;;;12.31;64.05;101208.00;4425829;32;20001;-69
2022/04/14 06:14:47;;;;;;;;;;;;;;;12.45;63.91;101204.81;4413459;32;19953;-69
2022/04/14 06:17:12;;;;;;;;;;;;;;;12.54;63.02;101204.19;4414714;32;19989;-69
2022/04/14 06:19:38;;;;;;;;;;;;;;;12.40;63.33;101201.72;4416322;32;19980;-69
2022/04/14 06:22:04;;;;;;;;;;;;;;;12.69;63.38;101209.06;4413099;32;19988;-69
2022/04/14 06:24:30;;;;;;;;;;;;;;;12.76;63.20;101208.88;4416253;32;19946;-69
2022/04/14 06:26:56;;;;;;;;;;;;;;;12.69;62.58;101217.53;4420184;32;19945;-69
2022/04/14 06:29:22;;;;;;;;;;;;;;;12.95;62.92;101215.66;4407260;32;20302;-70
2022/04/14 06:31:48;;;;;;;;;;;;;;;13.31;61.82;101216.31;4420174;32;20233;-69
2022/04/14 06:34:13;;;;;;;;;;;;;;;13.43;61.49;101216.37;4400538;32;19949;-69
2022/04/14 06:36:39;;;;;;;;;;;;;;;13.77;60.87;101224.28;4419732;32;20018;-69
2022/04/14 06:39:04;;;;;;;;;;;;;;;14.13;59.63;101226.84;4418865;32;20470;-69
2022/04/14 06:41:30;;;;;;;;;;;;;;;14.43;58.80;101227.13;4421167;32;20128;-69
2022/04/14 06:43:56;;;;;;;;;;;;;;;14.61;58.16;101226.53;4418884;32;20040;-70
2022/04/14 06:46:21;;;;;;;;;;;;;;;14.66;57.16;101221.09;4418131;32;19957;-70
2022/04/14 06:48:47;;;;;;;;;;;;;;;14.73;57.81;101220.84;4414246;32;19961;-70
2022/04/14 06:51:13;;;;;;;;;;;;;;;14.65;58.45;101230.03;4415640;32;19953;-70
2022/04/14 06:53:41;;;;;;;;;;;;;;;14.68;58.61;101223.47;4417231;32;19996;-70
2022/04/14 06:56:07;;;;;;;;;;;;;;;15.05;57.49;101223.41;4423113;32;19977;-70
2022/04/14 06:58:33;;;;;;;;;;;;;;;15.15;57.54;101225.06;4420206;32;20003;-70
2022/04/14 07:00:58;;;;;;;;;;;;;;;15.22;57.39;101230.47;4421116;32;20028;-70
2022/04/14 07:03:26;;;;;;;;;;;;;;;15.27;57.78;101238.41;4414547;32;20268;-70
2022/04/14 07:05:54;;;;;;;;;;;;;;;15.40;57.74;101232.75;4419703;32;19954;-70
2022/04/14 07:08:21;;;;;;;;;;;;;;;15.60;57.11;101241.72;4418234;32;19994;-70
2022/04/14 07:10:47;;;;;;;;;;;;;;;15.81;56.40;101244.53;4422073;32;20303;-70
2022/04/14 07:13:12;;;;;;;;;;;;;;;15.98;56.50;101245.94;4414345;32;19950;-71
2022/04/14 07:15:38;;;;;;;;;;;;;;;16.13;55.77;101245.41;4415402;32;19999;-70
2022/04/14 07:18:04;;;;;;;;;;;;;;;16.43;55.69;101238.91;4420401;32;19962;-70
2022/04/14 07:20:30;;;;;;;;;;;;;;;16.52;54.89;101245.47;4422795;32;19976;-70
2022/04/14 07:22:58;;;;;;;;;;;;;;;16.40;55.71;101249.16;4418142;32;20304;-70
2022/04/14 07:25:24;;;;;;;;;;;;;;;16.77;54.88;101255.81;4404694;32;19950;-70
2022/04/14 07:27:50;;;;;;;;;;;;;;;16.73;54.73;101260.84;4413512;32;20259;-70
2022/04/14 07:30:16;;;;;;;;;;;;;;;17.03;54.80;101254.31;4407056;32;19958;-70
2022/04/14 07:32:43;;;;;;;;;;;;;;;17.21;54.47;101255.13;4413082;32;19958;-70
2022/04/14 07:35:09;;;;;;;;;;;;;;;17.43;53.77;101260.72;4418623;32;20009;-70
2022/04/14 07:37:36;;;;;;;;;;;;;;;17.21;53.98;101260.03;4421960;32;20541;-70
2022/04/14 07:40:02;;;;;;;;;;;;;;;17.80;52.05;101257.37;4419293;32;19995;-70
2022/04/14 07:42:36;;;;;;;;;;;;;;;18.14;51.35;101264.78;4419285;32;19981;-70
2022/04/14 07:45:02;;;;;;;;;;;;;;;18.26;50.29;101260.16;4407270;32;20348;-70
2022/04/14 07:47:28;;;;;;;;;;;;;;;18.60;50.41;101262.59;4421015;32;20326;-70
2022/04/14 07:49:54;;;;;;;;;;;;;;;18.41;50.94;101263.94;4422715;32;19953;-71
2022/04/14 07:52:19;;;;;;;;;;;;;;;18.45;50.61;101256.00;4414274;32;20412;-71
2022/04/14 07:54:45;;;;;;;;;;;;;;;18.58;50.64;101248.03;4417425;32;19956;-71
2022/04/14 07:57:11;;;;;;;;;;;;;;;18.45;51.30;101253.94;4419131;32;19949;-71
2022/04/14 07:59:36;;;;;;;;;;;;;;;18.78;50.63;101254.72;4414875;32;20025;-71
2022/04/14 08:02:02;;;;;;;;;;;;;;;18.80;50.58;101251.41;4417849;32;19987;-71
2022/04/14 08:04:28;;;;;;;;;;;;;;;18.97;50.54;101256.25;4413724;32;19962;-71
2022/04/14 08:06:53;;;;;;;;;;;;;;;18.86;50.78;101253.13;4421497;32;19957;-71
2022/04/14 08:09:19;;;;;;;;;;;;;;;18.98;50.54;101252.09;4413517;32;20638;-71
2022/04/14 08:11:46;;;;;;;;;;;;;;;19.21;49.67;101259.88;4416832;32;19960;-71
2022/04/14 08:14:14;;;;;;;;;;;;;;;19.37;49.83;101264.41;4414662;32;20302;-71
2022/04/14 08:16:40;;;;;;;;;;;;;;;19.57;49.51;101258.84;4418432;32;19957;-72
2022/04/14 08:19:06;;;;;;;;;;;;;;;19.66;49.00;101264.47;4412744;32;19954;-71
2022/04/14 08:21:31;;;;;;;;;;;;;;;19.54;48.92;101260.59;4413429;32;19970;-71
2022/04/14 08:23:58;;;;;;;;;;;;;;;19.64;49.08;101261.34;4413259;32;19954;-71
2022/04/14 08:26:25;;;;;;;;;;;;;;;19.60;49.03;101264.37;4414337;32;19964;-70
2022/04/14 08:28:53;;;;;;;;;;;;;;;19.67;49.01;101266.06;4421723;32;19960;-71
2022/04/14 08:31:21;;;;;;;;;;;;;;;19.82;48.89;101269.72;4412905;32;19973;-70
2022/04/14 08:33:46;;;;;;;;;;;;;;;19.95;48.20;101255.97;4416140;32;20323;-71
2022/04/14 08:36:15;;;;;;;;;;;;;;;20.10;48.18;101255.97;4415864;32;19991;-71
2022/04/14 08:38:41;;;;;;;;;;;;;;;19.85;48.41;101263.03;4412677;32;20347;-71
2022/04/14 08:41:08;;;;;;;;;;;;;;;19.97;48.70;101264.81;4413614;32;19983;-71
2022/04/14 08:43:34;;;;;;;;;;;;;;;20.21;47.81;101262.72;4417600;32;19975;-71
2022/04/14 08:46:01;;;;;;;;;;;;;;;20.17;48.55;101262.12;4419982;32;20001;-71
2022/04/14 08:48:28;;;;;;;;;;;;;;;20.64;46.77;101264.75;4417630;32;20110;-71
2022/04/14 08:50:55;;;;;;;;;;;;;;;20.61;46.57;101262.06;4413707;32;19965;-71
2022/04/14 08:53:25;;;;;;;;;;;;;;;20.99;46.29;101262.69;4415581;32;19969;-71
2022/04/14 08:55:51;;;;;;;;;;;;;;;21.07;45.89;101255.28;4418273;32;19981;-71
2022/04/14 08:58:19;;;;;;;;;;;;;;;21.29;44.97;101257.66;4416056;32;20029;-73
2022/04/14 09:00:45;;;;;;;;;;;;;;;21.13;45.11;101259.00;4413182;32;19969;-70
2022/04/14 09:03:13;;;;;;;;;;;;;;;21.43;44.73;101262.53;4412275;32;19976;-71
2022/04/14 09:05:39;;;;;;;;;;;;;;;21.49;44.54;101260.53;4413458;32;19962;-71
2022/04/14 09:08:05;;;;;;;;;;;;;;;22.16;42.84;101262.09;4418349;32;20402;-71
2022/04/14 09:10:30;;;;;;;;;;;;;;;22.35;42.73;101263.31;4415462;32;19992;-71
2022/04/14 09:12:56;;;;;;;;;;;;;;;22.70;41.20;101258.94;4411747;32;20595;-71
2022/04/14 09:15:22;;;;;;;;;;;;;;;23.04;40.65;101252.12;4415914;32;19984;-69
2022/04/14 09:17:48;;;;;;;;;;;;;;;23.17;40.63;101255.34;4413496;32;19957;-69
2022/04/14 09:20:31;;;;;;;;;;;;;;;23.50;40.05;101264.16;4416598;32;19980;-70
2022/04/14 09:23:18;;;;;;;;;;;;;;;23.95;38.94;101270.87;4419642;32;19972;-70
2022/04/14 09:25:44;;;;;;;;;;;;;;;24.31;38.00;101269.91;4419917;32;20001;-70
2022/04/14 09:31:02;;;;;;;;;;;;;;;24.36;37.97;101276.97;3952099;32;15775226;-69
2022/04/14 09:33:28;;;;;;;;;;;;;;;24.36;37.97;101276.97;4428923;32;20056;-70
2022/04/14 09:36:13;;;;;;;;;;;;;;;23.07;39.73;101273.31;4427361;32;20403;-70
2022/04/14 09:38:59;;;;;;;;;;;;;;;22.93;39.91;101269.31;4428358;32;19965;-70
2022/04/14 09:41:28;;;;;;;;;;;;;;;23.01;39.75;101272.47;4431536;32;19945;-70
2022/04/14 09:43:54;;;;;;;;;;;;;;;23.15;39.31;101274.37;4424411;32;19961;-70
2022/04/14 09:46:20;;;;;;;;;;;;;;;23.02;38.60;101271.19;4429539;32;19975;-70
2022/04/14 09:49:07;;;;;;;;;;;;;;;23.16;37.60;101276.75;4429580;32;19949;-71
2022/04/14 09:51:33;;;;;;;;;;;;;;;23.47;37.25;101278.75;4431842;32;20567;-70
2022/04/14 09:54:11;;;;;;;;;;;;;;;23.38;36.56;101284.75;4424504;32;20649;-71
2022/04/14 09:56:39;;;;;;;;;;;;;;;23.64;35.91;101282.50;4424727;32;20326;-72
2022/04/14 09:59:06;;;;;;;;;;;;;;;24.06;34.49;101296.78;4428127;32;19996;-70
2022/04/14 10:01:32;;;;;;;;;;;;;;;24.14;34.98;101292.09;4430743;32;20087;-71
2022/04/14 10:03:57;;;;;;;;;;;;;;;24.08;35.02;101299.16;4426088;32;19989;-71
2022/04/14 10:06:23;;;;;;;;;;;;;;;24.02;34.65;101299.09;4426041;32;19980;-70
2022/04/14 10:08:51;;;;;;;;;;;;;;;24.28;34.14;101304.66;4426516;32;19957;-70
2022/04/14 10:11:23;;;;;;;;;;;;;;;23.98;34.64;101294.91;4432965;32;20005;-71
2022/04/14 10:13:48;;;;;;;;;;;;;;;23.83;34.43;101300.84;4427790;32;20015;-71
2022/04/14 10:16:14;;;;;;;;;;;;;;;23.94;34.31;101295.16;4428267;32;20070;-70
2022/04/14 10:18:40;;;;;;;;;;;;;;;24.05;34.34;101300.19;4428453;32;19953;-70
2022/04/14 10:21:08;;;;;;;;;;;;;;;24.00;34.65;101298.88;4423832;32;20020;-71
2022/04/14 10:23:34;;;;;;;;;;;;;;;23.93;34.18;101299.31;4412265;32;20020;-71
2022/04/14 10:26:00;;;;;;;;;;;;;;;24.11;33.82;101304.63;4429596;32;19984;-71
2022/04/14 10:28:26;;;;;;;;;;;;;;;24.13;33.58;101296.28;4427066;32;19976;-71
2022/04/14 10:30:55;;;;;;;;;;;;;;;24.27;32.87;101301.00;4426590;32;19965;-71
2022/04/14 10:33:22;;;;;;;;;;;;;;;24.47;32.60;101297.91;4429090;32;19968;-71
2022/04/14 10:35:49;;;;;;;;;;;;;;;24.80;32.12;101292.19;4428411;32;19989;-71
2022/04/14 10:38:20;;;;;;;;;;;;;;;24.91;31.99;101297.16;4420856;32;19997;-71
2022/04/14 10:40:51;;;;;;;;;;;;;;;24.82;31.82;101301.06;4423467;32;20432;-71
2022/04/14 10:43:19;;;;;;;;;;;;;;;24.62;31.92;101304.19;4413667;32;20005;-71
2022/04/14 10:45:49;;;;;;;;;;;;;;;24.69;31.37;101297.13;4414641;32;20312;-71
2022/04/14 10:48:31;;;;;;;;;;;;;;;25.14;30.89;101299.47;4417398;32;19958;-71
2022/04/14 10:51:16;;;;;;;;;;;;;;;24.99;31.33;101298.16;4404851;32;20335;-71
2022/04/14 10:59:17;;;;;;;;;;;;;;;26.20;29.87;101297.00;3953626;32;15722575;-70
2022/04/14 11:07:01;;;;;;;;;;;;;;;26.62;31.33;101305.09;3962517;31;15718024;-72
2022/04/14 11:23:05;;;;;;;;;;;;;;;25.87;30.83;101323.09;3960339;32;15722503;-71
2022/04/14 11:25:51;;;;;;;;;;;;;;;25.87;30.83;101323.09;4431952;32;20012;-71
2022/04/14 11:30:54;;;;;;;;;;;;;;;26.23;30.67;101316.88;3953921;32;15724250;-72
2022/04/14 11:33:25;;;;;;;;;;;;;;;26.23;30.67;101316.88;4425590;32;19968;-71
2022/04/14 11:35:51;;;;;;;;;;;;;;;25.91;30.98;101314.94;4431142;32;19957;-72
2022/04/14 11:38:36;;;;;;;;;;;;;;;25.63;31.21;101317.94;4432242;32;19985;-72
2022/04/14 11:41:02;;;;;;;;;;;;;;;25.24;31.87;101312.28;4427421;32;19976;-72
2022/04/14 11:43:27;;;;;;;;;;;;;;;25.19;31.25;101310.19;4432619;32;19954;-72
2022/04/14 11:45:53;;;;;;;;;;;;;;;24.98;32.50;101314.66;4428784;32;20001;-72
2022/04/14 11:48:19;;;;;;;;;;;;;;;25.04;32.24;101324.06;4433413;32;20388;-72
2022/04/14 11:50:44;;;;;;;;;;;;;;;25.75;31.01;101315.81;4427085;32;19967;-72
2022/04/14 11:53:10;;;;;;;;;;;;;;;25.86;30.53;101324.41;4425100;32;20476;-72
2022/04/14 11:55:38;;;;;;;;;;;;;;;26.69;29.79;101311.06;4430814;32;19953;-72
2022/04/14 11:58:04;;;;;;;;;;;;;;;26.21;30.56;101315.84;4428640;32;20003;-72
2022/04/14 12:00:30;;;;;;;;;;;;;;;26.17;29.82;101318.25;4428176;32;20319;-72
2022/04/14 12:02:59;;;;;;;;;;;;;;;26.23;30.16;101313.22;4427462;32;19997;-72
2022/04/14 12:05:25;;;;;;;;;;;;;;;26.47;29.76;101319.88;4425435;32;19995;-72
2022/04/14 12:08:04;;;;;;;;;;;;;;;26.35;29.95;101306.84;4432042;32;20286;-71
2022/04/14 12:10:29;;;;;;;;;;;;;;;26.46;30.01;101321.22;4433243;32;19956;-72
2022/04/14 12:13:04;;;;;;;;;;;;;;;26.50;29.68;101310.16;4429164;32;19980;-72
2022/04/14 12:15:30;;;;;;;;;;;;;;;26.45;29.69;101313.84;4432872;32;19968;-72
2022/04/14 12:18:04;;;;;;;;;;;;;;;26.32;30.09;101322.34;4434009;32;20426;-71
2022/04/14 12:20:34;;;;;;;;;;;;;;;25.88;30.75;101308.13;4433609;32;19957;-71
2022/04/14 12:23:00;;;;;;;;;;;;;;;25.82;31.19;101313.16;4436434;32;19973;-71
2022/04/14 12:25:27;;;;;;;;;;;;;;;26.17;30.79;101310.34;4429344;32;20433;-72
2022/04/14 12:27:53;;;;;;;;;;;;;;;26.32;30.51;101310.78;4426316;32;19988;-71
2022/04/14 12:30:21;;;;;;;;;;;;;;;26.48;30.50;101317.78;4427553;32;19972;-71
2022/04/14 12:32:47;;;;;;;;;;;;;;;26.45;30.18;101313.84;4428846;32;20143;-71
2022/04/14 12:35:33;;;;;;;;;;;;;;;26.15;30.36;101315.91;4430227;32;19964;-71
2022/04/14 12:38:18;;;;;;;;;;;;;;;26.70;29.46;101308.97;4430314;32;20021;-71
2022/04/14 12:41:00;;;;;;;;;;;;;;;26.62;29.75;101316.62;4425815;32;19984;-71
2022/04/14 12:43:28;;;;;;;;;;;;;;;26.53;29.82;101309.06;4422306;32;20037;-71
2022/04/14 12:45:54;;;;;;;;;;;;;;;27.06;28.83;101313.38;4415686;32;20365;-71
2022/04/14 12:51:03;;;;;;;;;;;;;;;27.66;27.92;101319.84;3959780;32;15725423;-72
2022/04/14 12:53:29;;;;;;;;;;;;;;;27.66;27.92;101319.84;4427197;32;20458;-72
2022/04/14 12:56:14;;;;;;;;;;;;;;;27.16;28.64;101309.56;4430939;32;19977;-73
2022/04/14 12:58:40;;;;;;;;;;;;;;;27.51;28.40;101322.38;4440050;32;19969;-71
2022/04/14 13:01:07;;;;;;;;;;;;;;;27.92;28.25;101311.41;4437249;32;20351;-71
2022/04/14 13:03:50;;;;;;;;;;;;;;;27.37;28.39;101312.03;4430681;32;20009;-71
2022/04/14 13:06:17;;;;;;;;;;;;;;;27.80;27.96;101315.72;4428197;32;20079;-72